sensor_id;sensor_type;location;lat;lon;timestamp;pressure;altitude;pressure_sealevel;temperature;humidity
6680;BME280;3376;42.664;23.346;2023-11-21T00:00:15;94346.97;;;4.77;100.00
6680;BME280;3376;42.664;23.346;2023-11-21T00:02:44;94360.16;;;4.82;100.00
6680;BME280;3376;42.664;23.346;2023-11-21T00:05:14;94348.31;;;4.81;100.00
6680;BME280;3376;42.664;23.346;2023-11-21T00:07:41;94357.97;;;4.87;100.00
6680;BME280;3376;42.664;23.346;2023-11-21T00:10:09;94357.19;;;4.87;100.00
6680;BME280;3376;42.664;23.346;2023-11-21T00:12:37;94354.63;;;4.87;100.00
6680;BME280;3376;42.664;23.346;2023-11-21T00:15:08;94330.53;;;4.70;100.00
6680;BME280;3376;42.664;23.346;2023-11-21T00:17:36;94356.22;;;4.88;100.00
6680;BME280;3376;42.664;23.346;2023-11-21T00:20:04;94360.63;;;4.77;100.00
6680;BME280;3376;42.664;23.346;2023-11-21T00:22:33;94357.81;;;4.71;100.00
6680;BME280;3376;42.664;23.346;2023-11-21T00:25:01;94354.28;;;4.72;100.00
6680;BME280;3376;42.664;23.346;2023-11-21T00:27:29;94354.28;;;4.72;100.00
6680;BME280;3376;42.664;23.346;2023-11-21T00:29:56;94349.97;;;4.72;100.00
6680;BME280;3376;42.664;23.346;2023-11-21T00:32:23;94344.84;;;4.72;100.00
6680;BME280;3376;42.664;23.346;2023-11-21T00:34:49;94317.03;;;4.68;100.00
6680;BME280;3376;42.664;23.346;2023-11-21T00:37:16;94347.19;;;4.83;100.00
6680;BME280;3376;42.664;23.346;2023-11-21T00:39:44;94346.66;;;4.80;100.00
6680;BME280;3376;42.664;23.346;2023-11-21T00:42:11;94340.22;;;4.76;100.00
6680;BME280;3376;42.664;23.346;2023-11-21T00:44:38;94343.72;;;4.75;100.00
6680;BME280;3376;42.664;23.346;2023-11-21T00:47:05;94152.03;;;3.62;100.00
6680;BME280;3376;42.664;23.346;2023-11-21T00:49:33;94177.59;;;3.72;100.00
6680;BME280;3376;42.664;23.346;2023-11-21T00:52:00;94361.28;;;4.79;100.00
6680;BME280;3376;42.664;23.346;2023-11-21T00:54:28;94350.03;;;4.63;100.00
6680;BME280;3376;42.664;23.346;2023-11-21T00:56:56;94351.34;;;4.67;100.00
6680;BME280;3376;42.664;23.346;2023-11-21T00:59:23;94340.22;;;4.76;100.00
6680;BME280;3376;42.664;23.346;2023-11-21T01:01:50;94337.06;;;4.82;100.00
6680;BME280;3376;42.664;23.346;2023-11-21T01:04:16;94331.88;;;4.74;100.00
6680;BME280;3376;42.664;23.346;2023-11-21T01:06:43;94335.00;;;4.68;100.00
6680;BME280;3376;42.664;23.346;2023-11-21T01:09:10;94339.06;;;4.70;100.00
6680;BME280;3376;42.664;23.346;2023-11-21T01:11:38;94318.72;;;4.42;100.00
6680;BME280;3376;42.664;23.346;2023-11-21T01:14:06;94335.75;;;4.60;100.00
6680;BME280;3376;42.664;23.346;2023-11-21T01:16:34;94308.09;;;4.37;100.00
6680;BME280;3376;42.664;23.346;2023-11-21T01:19:01;94330.94;;;4.48;100.00
6680;BME280;3376;42.664;23.346;2023-11-21T01:21:29;94331.91;;;4.47;100.00
6680;BME280;3376;42.664;23.346;2023-11-21T01:23:57;94340.91;;;4.51;100.00
6680;BME280;3376;42.664;23.346;2023-11-21T01:26:23;94342.53;;;4.52;100.00
6680;BME280;3376;42.664;23.346;2023-11-21T01:28:50;94340.66;;;4.54;100.00
6680;BME280;3376;42.664;23.346;2023-11-21T01:31:18;94342.16;;;4.47;100.00
6680;BME280;3376;42.664;23.346;2023-11-21T01:33:46;94334.47;;;4.47;100.00
6680;BME280;3376;42.664;23.346;2023-11-21T01:36:14;94328.91;;;4.51;100.00
6680;BME280;3376;42.664;23.346;2023-11-21T01:38:40;94330.66;;;4.51;100.00
6680;BME280;3376;42.664;23.346;2023-11-21T01:41:07;94328.75;;;4.53;100.00
6680;BME280;3376;42.664;23.346;2023-11-21T01:43:36;94329.53;;;4.36;100.00
6680;BME280;3376;42.664;23.346;2023-11-21T01:46:03;94343.19;;;4.27;100.00
6680;BME280;3376;42.664;23.346;2023-11-21T01:48:33;94331.25;;;4.18;100.00
6680;BME280;3376;42.664;23.346;2023-11-21T01:51:01;94332.22;;;4.07;100.00
6680;BME280;3376;42.664;23.346;2023-11-21T01:53:28;94326.56;;;4.04;100.00
6680;BME280;3376;42.664;23.346;2023-11-21T01:55:56;94314.16;;;4.09;100.00
6680;BME280;3376;42.664;23.346;2023-11-21T01:58:23;94320.63;;;4.03;100.00
6680;BME280;3376;42.664;23.346;2023-11-21T02:00:50;94310.16;;;3.97;100.00
6680;BME280;3376;42.664;23.346;2023-11-21T02:03:20;94324.72;;;3.96;100.00
6680;BME280;3376;42.664;23.346;2023-11-21T02:05:48;94329.03;;;3.96;100.00
6680;BME280;3376;42.664;23.346;2023-11-21T02:08:15;94321.75;;;3.91;100.00
6680;BME280;3376;42.664;23.346;2023-11-21T02:10:42;94332.41;;;3.96;100.00
6680;BME280;3376;42.664;23.346;2023-11-21T02:13:09;94335.91;;;3.95;100.00
6680;BME280;3376;42.664;23.346;2023-11-21T02:15:36;94331.22;;;3.91;100.00
6680;BME280;3376;42.664;23.346;2023-11-21T02:18:04;94327.59;;;3.84;100.00
6680;BME280;3376;42.664;23.346;2023-11-21T02:20:31;94170.09;;;2.87;100.00
6680;BME280;3376;42.664;23.346;2023-11-21T02:23:01;94328.53;;;3.92;100.00
6680;BME280;3376;42.664;23.346;2023-11-21T02:25:29;94324.47;;;3.90;100.00
6680;BME280;3376;42.664;23.346;2023-11-21T02:27:58;94324.97;;;4.03;100.00
6680;BME280;3376;42.664;23.346;2023-11-21T02:30:25;94326.06;;;4.00;100.00
6680;BME280;3376;42.664;23.346;2023-11-21T02:32:53;94327.00;;;3.99;100.00
6680;BME280;3376;42.664;23.346;2023-11-21T02:35:21;94319.78;;;3.85;100.00
6680;BME280;3376;42.664;23.346;2023-11-21T02:37:48;94324.38;;;3.82;100.00
6680;BME280;3376;42.664;23.346;2023-11-21T02:40:17;94274.53;;;3.67;100.00
6680;BME280;3376;42.664;23.346;2023-11-21T02:42:46;94304.66;;;3.92;100.00
6680;BME280;3376;42.664;23.346;2023-11-21T02:45:13;94320.41;;;3.97;100.00
6680;BME280;3376;42.664;23.346;2023-11-21T02:47:42;94309.09;;;3.90;100.00
6680;BME280;3376;42.664;23.346;2023-11-21T02:50:09;94318.13;;;3.94;100.00
6680;BME280;3376;42.664;23.346;2023-11-21T02:52:36;94323.69;;;3.80;100.00
6680;BME280;3376;42.664;23.346;2023-11-21T02:55:03;94316.97;;;3.79;100.00
6680;BME280;3376;42.664;23.346;2023-11-21T02:57:32;94319.66;;;3.77;100.00
6680;BME280;3376;42.664;23.346;2023-11-21T02:59:59;94294.22;;;3.56;100.00
6680;BME280;3376;42.664;23.346;2023-11-21T03:02:26;94317.50;;;3.73;100.00
6680;BME280;3376;42.664;23.346;2023-11-21T03:04:53;94315.88;;;3.81;100.00
6680;BME280;3376;42.664;23.346;2023-11-21T03:07:20;94303.19;;;3.80;100.00
6680;BME280;3376;42.664;23.346;2023-11-21T03:09:47;94285.63;;;3.57;100.00
6680;BME280;3376;42.664;23.346;2023-11-21T03:12:14;94317.91;;;3.78;100.00
6680;BME280;3376;42.664;23.346;2023-11-21T03:14:42;94305.66;;;3.72;100.00
6680;BME280;3376;42.664;23.346;2023-11-21T03:17:09;94308.22;;;3.72;100.00
6680;BME280;3376;42.664;23.346;2023-11-21T03:19:37;94320.22;;;3.71;100.00
6680;BME280;3376;42.664;23.346;2023-11-21T03:22:03;94310.50;;;3.75;100.00
6680;BME280;3376;42.664;23.346;2023-11-21T03:24:30;94325.06;;;3.74;100.00
6680;BME280;3376;42.664;23.346;2023-11-21T03:26:57;94310.94;;;3.70;100.00
6680;BME280;3376;42.664;23.346;2023-11-21T03:29:25;94321.03;;;3.72;100.00
6680;BME280;3376;42.664;23.346;2023-11-21T03:31:53;94331.81;;;3.75;100.00
6680;BME280;3376;42.664;23.346;2023-11-21T03:34:23;94327.25;;;3.59;100.00
6680;BME280;3376;42.664;23.346;2023-11-21T03:36:51;94334.00;;;3.60;100.00
6680;BME280;3376;42.664;23.346;2023-11-21T03:39:18;94325.09;;;3.65;100.00
6680;BME280;3376;42.664;23.346;2023-11-21T03:41:45;94333.84;;;3.72;100.00
6680;BME280;3376;42.664;23.346;2023-11-21T03:44:13;94324.00;;;3.67;100.00
6680;BME280;3376;42.664;23.346;2023-11-21T03:46:40;94326.94;;;3.72;100.00
6680;BME280;3376;42.664;23.346;2023-11-21T03:49:08;94309.31;;;3.69;100.00
6680;BME280;3376;42.664;23.346;2023-11-21T03:51:35;94312.22;;;3.84;100.00
6680;BME280;3376;42.664;23.346;2023-11-21T03:54:02;94304.34;;;3.95;100.00
6680;BME280;3376;42.664;23.346;2023-11-21T03:56:29;94295.88;;;3.94;100.00
6680;BME280;3376;42.664;23.346;2023-11-21T03:58:56;94302.16;;;4.00;100.00
6680;BME280;3376;42.664;23.346;2023-11-21T04:01:24;94299.09;;;3.96;100.00
6680;BME280;3376;42.664;23.346;2023-11-21T04:03:51;94302.66;;;3.86;100.00
6680;BME280;3376;42.664;23.346;2023-11-21T04:06:19;94298.59;;;3.83;100.00
6680;BME280;3376;42.664;23.346;2023-11-21T04:08:46;94297.53;;;3.86;100.00
6680;BME280;3376;42.664;23.346;2023-11-21T04:11:13;94293.47;;;3.83;100.00
6680;BME280;3376;42.664;23.346;2023-11-21T04:13:41;94294.41;;;3.92;100.00
6680;BME280;3376;42.664;23.346;2023-11-21T04:16:08;94297.03;;;4.00;100.00
6680;BME280;3376;42.664;23.346;2023-11-21T04:18:36;94286.09;;;4.07;100.00
6680;BME280;3376;42.664;23.346;2023-11-21T04:21:03;94298.09;;;4.07;100.00
6680;BME280;3376;42.664;23.346;2023-11-21T04:23:32;94285.38;;;3.88;100.00
6680;BME280;3376;42.664;23.346;2023-11-21T04:25:59;94279.69;;;3.94;100.00
6680;BME280;3376;42.664;23.346;2023-11-21T04:28:27;94291.00;;;4.01;100.00
6680;BME280;3376;42.664;23.346;2023-11-21T04:30:54;94296.63;;;4.04;100.00
6680;BME280;3376;42.664;23.346;2023-11-21T04:33:21;94297.09;;;4.17;100.00
6680;BME280;3376;42.664;23.346;2023-11-21T04:35:48;94261.47;;;3.97;100.00
6680;BME280;3376;42.664;23.346;2023-11-21T04:38:14;94294.84;;;4.14;100.00
6680;BME280;3376;42.664;23.346;2023-11-21T04:40:43;94297.81;;;4.10;100.00
6680;BME280;3376;42.664;23.346;2023-11-21T04:43:09;94290.41;;;4.07;100.00
6680;BME280;3376;42.664;23.346;2023-11-21T04:45:35;94295.50;;;4.16;100.00
6680;BME280;3376;42.664;23.346;2023-11-21T04:48:02;94301.53;;;4.25;100.00
6680;BME280;3376;42.664;23.346;2023-11-21T04:50:30;94294.09;;;4.22;100.00
6680;BME280;3376;42.664;23.346;2023-11-21T04:52:57;94302.56;;;4.32;100.00
6680;BME280;3376;42.664;23.346;2023-11-21T04:55:24;94306.44;;;4.36;100.00
6680;BME280;3376;42.664;23.346;2023-11-21T04:57:54;94297.22;;;4.43;100.00
6680;BME280;3376;42.664;23.346;2023-11-21T05:00:21;94306.16;;;4.39;100.00
6680;BME280;3376;42.664;23.346;2023-11-21T05:02:48;94299.59;;;4.27;100.00
6680;BME280;3376;42.664;23.346;2023-11-21T05:05:15;94307.31;;;4.27;100.00
6680;BME280;3376;42.664;23.346;2023-11-21T05:07:42;94302.16;;;4.27;100.00
6680;BME280;3376;42.664;23.346;2023-11-21T05:10:09;94325.22;;;4.09;100.00
6680;BME280;3376;42.664;23.346;2023-11-21T05:12:37;94303.56;;;3.94;100.00
6680;BME280;3376;42.664;23.346;2023-11-21T05:15:08;94297.72;;;4.02;100.00
6680;BME280;3376;42.664;23.346;2023-11-21T05:17:36;94296.63;;;4.04;100.00
6680;BME280;3376;42.664;23.346;2023-11-21T05:20:05;94293.56;;;4.01;100.00
6680;BME280;3376;42.664;23.346;2023-11-21T05:22:34;94296.28;;;4.17;100.00
6680;BME280;3376;42.664;23.346;2023-11-21T05:25:01;94283.31;;;4.18;100.00
6680;BME280;3376;42.664;23.346;2023-11-21T05:27:29;94295.13;;;4.38;100.00
6680;BME280;3376;42.664;23.346;2023-11-21T05:29:56;94304.38;;;4.49;100.00
6680;BME280;3376;42.664;23.346;2023-11-21T05:32:24;94297.53;;;4.40;100.00
6680;BME280;3376;42.664;23.346;2023-11-21T05:34:52;94300.50;;;4.35;100.00
6680;BME280;3376;42.664;23.346;2023-11-21T05:37:19;94274.63;;;4.73;100.00
6680;BME280;3376;42.664;23.346;2023-11-21T05:39:46;94312.59;;;4.88;100.00
6680;BME280;3376;42.664;23.346;2023-11-21T05:42:13;94305.88;;;4.87;100.00
6680;BME280;3376;42.664;23.346;2023-11-21T05:44:41;94311.06;;;4.77;100.00
6680;BME280;3376;42.664;23.346;2023-11-21T05:47:09;94289.63;;;4.51;100.00
6680;BME280;3376;42.664;23.346;2023-11-21T05:49:37;94313.47;;;4.78;100.00
6680;BME280;3376;42.664;23.346;2023-11-21T05:52:05;94315.31;;;4.86;100.00
6680;BME280;3376;42.664;23.346;2023-11-21T05:54:32;94304.19;;;4.95;100.00
6680;BME280;3376;42.664;23.346;2023-11-21T05:56:59;94311.47;;;5.08;100.00
6680;BME280;3376;42.664;23.346;2023-11-21T05:59:27;94312.97;;;5.10;100.00
6680;BME280;3376;42.664;23.346;2023-11-21T06:01:53;94318.53;;;4.88;100.00
6680;BME280;3376;42.664;23.346;2023-11-21T06:04:20;94310.19;;;4.86;100.00
6680;BME280;3376;42.664;23.346;2023-11-21T06:06:52;94315.09;;;4.79;100.00
6680;BME280;3376;42.664;23.346;2023-11-21T06:09:19;94314.94;;;4.81;100.00
6680;BME280;3376;42.664;23.346;2023-11-21T06:11:47;94294.72;;;4.78;100.00
6680;BME280;3376;42.664;23.346;2023-11-21T06:14:14;94311.22;;;4.93;100.00
6680;BME280;3376;42.664;23.346;2023-11-21T06:16:43;94315.91;;;5.15;100.00
6680;BME280;3376;42.664;23.346;2023-11-21T06:19:10;94318.66;;;5.39;100.00
6680;BME280;3376;42.664;23.346;2023-11-21T06:21:37;94328.78;;;5.66;100.00
6680;BME280;3376;42.664;23.346;2023-11-21T06:24:06;94327.38;;;5.89;100.00
6680;BME280;3376;42.664;23.346;2023-11-21T06:26:33;94322.44;;;5.96;100.00
6680;BME280;3376;42.664;23.346;2023-11-21T06:29:00;94332.28;;;6.09;100.00
6680;BME280;3376;42.664;23.346;2023-11-21T06:31:29;94329.81;;;6.33;100.00
6680;BME280;3376;42.664;23.346;2023-11-21T06:33:58;94336.88;;;6.64;100.00
6680;BME280;3376;42.664;23.346;2023-11-21T06:36:25;94334.91;;;7.16;100.00
6680;BME280;3376;42.664;23.346;2023-11-21T06:38:52;94349.38;;;7.73;100.00
6680;BME280;3376;42.664;23.346;2023-11-21T06:41:21;94325.63;;;8.10;100.00
6680;BME280;3376;42.664;23.346;2023-11-21T06:43:49;94344.38;;;8.59;100.00
6680;BME280;3376;42.664;23.346;2023-11-21T06:46:15;94355.91;;;9.09;100.00
6680;BME280;3376;42.664;23.346;2023-11-21T06:48:42;94353.50;;;9.76;100.00
6680;BME280;3376;42.664;23.346;2023-11-21T06:51:09;94353.09;;;10.38;97.86
6680;BME280;3376;42.664;23.346;2023-11-21T06:53:36;94340.69;;;10.99;96.60
6680;BME280;3376;42.664;23.346;2023-11-21T06:56:04;94365.91;;;11.61;90.88
6680;BME280;3376;42.664;23.346;2023-11-21T06:58:34;94343.50;;;11.75;90.86
6680;BME280;3376;42.664;23.346;2023-11-21T07:01:00;94368.28;;;12.05;87.87
6680;BME280;3376;42.664;23.346;2023-11-21T07:03:27;94363.66;;;12.56;86.34
6680;BME280;3376;42.664;23.346;2023-11-21T07:05:54;94370.00;;;12.87;83.15
6680;BME280;3376;42.664;23.346;2023-11-21T07:08:21;94366.22;;;13.24;82.41
6680;BME280;3376;42.664;23.346;2023-11-21T07:10:48;94350.28;;;12.99;79.51
6680;BME280;3376;42.664;23.346;2023-11-21T07:13:15;94356.94;;;13.02;80.38
6680;BME280;3376;42.664;23.346;2023-11-21T07:15:43;94353.00;;;13.26;80.78
6680;BME280;3376;42.664;23.346;2023-11-21T07:18:10;94338.41;;;13.25;77.80
6680;BME280;3376;42.664;23.346;2023-11-21T07:20:37;94345.41;;;13.37;78.18
6680;BME280;3376;42.664;23.346;2023-11-21T07:23:04;94352.69;;;13.68;75.96
6680;BME280;3376;42.664;23.346;2023-11-21T07:25:31;94341.78;;;13.19;77.09
6680;BME280;3376;42.664;23.346;2023-11-21T07:27:59;94362.97;;;12.13;77.05
6680;BME280;3376;42.664;23.346;2023-11-21T07:30:25;94354.22;;;11.51;80.74
6680;BME280;3376;42.664;23.346;2023-11-21T07:32:54;94356.50;;;11.39;82.77
6680;BME280;3376;42.664;23.346;2023-11-21T07:35:21;94339.75;;;11.42;83.91
6680;BME280;3376;42.664;23.346;2023-11-21T07:37:47;94353.75;;;11.83;83.57
6680;BME280;3376;42.664;23.346;2023-11-21T07:40:15;94356.13;;;12.06;81.24
6680;BME280;3376;42.664;23.346;2023-11-21T07:42:42;94346.56;;;11.85;82.22
6680;BME280;3376;42.664;23.346;2023-11-21T07:45:09;94350.03;;;11.92;82.05
6680;BME280;3376;42.664;23.346;2023-11-21T07:47:37;94344.78;;;11.64;82.67
6680;BME280;3376;42.664;23.346;2023-11-21T07:50:07;94348.97;;;11.87;82.80
6680;BME280;3376;42.664;23.346;2023-11-21T07:52:34;94355.41;;;11.91;82.47
6680;BME280;3376;42.664;23.346;2023-11-21T07:55:01;94351.19;;;11.90;81.43
6680;BME280;3376;42.664;23.346;2023-11-21T07:57:28;94346.19;;;11.88;81.65
6680;BME280;3376;42.664;23.346;2023-11-21T07:59:54;94339.81;;;12.12;80.91
6680;BME280;3376;42.664;23.346;2023-11-21T08:02:21;94332.69;;;12.20;81.90
6680;BME280;3376;42.664;23.346;2023-11-21T08:04:48;94335.53;;;12.04;80.45
6680;BME280;3376;42.664;23.346;2023-11-21T08:07:17;94330.75;;;11.59;83.27
6680;BME280;3376;42.664;23.346;2023-11-21T08:09:44;94319.00;;;11.42;82.37
6680;BME280;3376;42.664;23.346;2023-11-21T08:12:12;94321.19;;;11.17;83.85
6680;BME280;3376;42.664;23.346;2023-11-21T08:14:40;94315.75;;;10.98;85.86
6680;BME280;3376;42.664;23.346;2023-11-21T08:17:07;94329.38;;;10.85;86.77
6680;BME280;3376;42.664;23.346;2023-11-21T08:19:35;94321.47;;;11.08;86.53
6680;BME280;3376;42.664;23.346;2023-11-21T08:22:03;94328.03;;;11.46;85.93
6680;BME280;3376;42.664;23.346;2023-11-21T08:24:34;94334.09;;;11.53;84.82
6680;BME280;3376;42.664;23.346;2023-11-21T08:27:01;94316.13;;;11.72;87.02
6680;BME280;3376;42.664;23.346;2023-11-21T08:29:29;94321.06;;;12.16;84.96
6680;BME280;3376;42.664;23.346;2023-11-21T08:31:57;94330.53;;;12.30;86.43
6680;BME280;3376;42.664;23.346;2023-11-21T08:34:25;94332.78;;;12.12;85.64
6680;BME280;3376;42.664;23.346;2023-11-21T08:36:52;94336.25;;;12.19;83.77
6680;BME280;3376;42.664;23.346;2023-11-21T08:39:19;94335.63;;;12.17;85.16
6680;BME280;3376;42.664;23.346;2023-11-21T08:41:47;94308.69;;;12.18;84.20
6680;BME280;3376;42.664;23.346;2023-11-21T08:44:14;94322.88;;;12.22;84.25
6680;BME280;3376;42.664;23.346;2023-11-21T08:46:41;94331.56;;;11.80;84.29
6680;BME280;3376;42.664;23.346;2023-11-21T08:49:10;94318.78;;;11.79;86.06
6680;BME280;3376;42.664;23.346;2023-11-21T08:51:37;94315.38;;;11.78;85.74
6680;BME280;3376;42.664;23.346;2023-11-21T08:54:04;94321.97;;;11.81;87.49
6680;BME280;3376;42.664;23.346;2023-11-21T08:56:33;94311.72;;;11.94;85.89
6680;BME280;3376;42.664;23.346;2023-11-21T08:59:02;94172.41;;;11.18;84.38
6680;BME280;3376;42.664;23.346;2023-11-21T09:01:29;94308.59;;;12.39;82.93
6680;BME280;3376;42.664;23.346;2023-11-21T09:03:57;94299.59;;;12.76;81.36
6680;BME280;3376;42.664;23.346;2023-11-21T09:06:24;94269.63;;;12.80;78.38
6680;BME280;3376;42.664;23.346;2023-11-21T09:08:51;94280.91;;;13.07;77.73
6680;BME280;3376;42.664;23.346;2023-11-21T09:11:18;94279.63;;;12.89;79.22
6680;BME280;3376;42.664;23.346;2023-11-21T09:13:45;94273.91;;;12.53;79.02
6680;BME280;3376;42.664;23.346;2023-11-21T09:16:13;94258.03;;;12.35;81.11
6680;BME280;3376;42.664;23.346;2023-11-21T09:18:40;94249.72;;;12.12;82.62
6680;BME280;3376;42.664;23.346;2023-11-21T09:21:07;94258.59;;;11.97;83.82
6680;BME280;3376;42.664;23.346;2023-11-21T09:23:35;94254.22;;;11.69;86.00
6680;BME280;3376;42.664;23.346;2023-11-21T09:26:02;94243.09;;;11.75;87.15
6680;BME280;3376;42.664;23.346;2023-11-21T09:28:28;94233.88;;;11.73;86.92
6680;BME280;3376;42.664;23.346;2023-11-21T09:30:55;94225.88;;;11.68;86.30
6680;BME280;3376;42.664;23.346;2023-11-21T09:33:24;94213.56;;;11.76;86.42
6680;BME280;3376;42.664;23.346;2023-11-21T09:35:51;94212.69;;;11.97;86.67
6680;BME280;3376;42.664;23.346;2023-11-21T09:38:18;94196.63;;;12.21;84.89
6680;BME280;3376;42.664;23.346;2023-11-21T09:40:44;94196.38;;;12.63;83.29
6680;BME280;3376;42.664;23.346;2023-11-21T09:43:16;94198.75;;;13.32;80.32
6680;BME280;3376;42.664;23.346;2023-11-21T09:45:45;94198.22;;;14.13;77.63
6680;BME280;3376;42.664;23.346;2023-11-21T09:48:13;94187.75;;;14.83;73.69
6680;BME280;3376;42.664;23.346;2023-11-21T09:50:43;94186.72;;;15.47;70.32
6680;BME280;3376;42.664;23.346;2023-11-21T09:53:13;94174.78;;;16.00;66.72
6680;BME280;3376;42.664;23.346;2023-11-21T09:55:45;94135.31;;;16.08;64.48
6680;BME280;3376;42.664;23.346;2023-11-21T09:58:13;94145.16;;;16.42;59.24
6680;BME280;3376;42.664;23.346;2023-11-21T10:00:41;94147.75;;;16.42;58.25
6680;BME280;3376;42.664;23.346;2023-11-21T10:03:08;94161.44;;;16.62;58.15
6680;BME280;3376;42.664;23.346;2023-11-21T10:05:35;94154.22;;;17.17;56.36
6680;BME280;3376;42.664;23.346;2023-11-21T10:08:07;94141.56;;;17.67;54.78
6680;BME280;3376;42.664;23.346;2023-11-21T10:10:36;94138.59;;;17.98;54.34
6680;BME280;3376;42.664;23.346;2023-11-21T10:13:06;94146.22;;;18.62;53.45
6680;BME280;3376;42.664;23.346;2023-11-21T10:15:33;94144.13;;;19.20;49.85
6680;BME280;3376;42.664;23.346;2023-11-21T10:18:02;94144.34;;;19.63;48.28
6680;BME280;3376;42.664;23.346;2023-11-21T10:20:29;94139.03;;;19.58;47.25
6680;BME280;3376;42.664;23.346;2023-11-21T10:22:56;94132.25;;;19.62;45.98
6680;BME280;3376;42.664;23.346;2023-11-21T10:25:25;94122.44;;;19.25;47.05
6680;BME280;3376;42.664;23.346;2023-11-21T10:27:57;94118.34;;;18.44;49.62
6680;BME280;3376;42.664;23.346;2023-11-21T10:30:28;94121.72;;;17.94;50.36
6680;BME280;3376;42.664;23.346;2023-11-21T10:32:59;94104.50;;;17.40;51.20
6680;BME280;3376;42.664;23.346;2023-11-21T10:35:39;94115.31;;;17.43;51.54
6680;BME280;3376;42.664;23.346;2023-11-21T10:38:06;94113.88;;;17.47;51.10
6680;BME280;3376;42.664;23.346;2023-11-21T10:40:38;94104.38;;;17.23;49.61
6680;BME280;3376;42.664;23.346;2023-11-21T10:43:07;94096.59;;;16.94;50.06
6680;BME280;3376;42.664;23.346;2023-11-21T10:45:36;94094.34;;;16.38;52.15
6680;BME280;3376;42.664;23.346;2023-11-21T10:48:05;94098.94;;;16.06;52.38
6680;BME280;3376;42.664;23.346;2023-11-21T10:50:33;94086.69;;;15.71;53.22
6680;BME280;3376;42.664;23.346;2023-11-21T10:53:02;94092.22;;;15.13;54.78
6680;BME280;3376;42.664;23.346;2023-11-21T10:55:29;94100.91;;;15.07;55.83
6680;BME280;3376;42.664;23.346;2023-11-21T10:58:00;94090.22;;;14.84;56.84
6680;BME280;3376;42.664;23.346;2023-11-21T11:00:29;94085.22;;;14.58;57.51
6680;BME280;3376;42.664;23.346;2023-11-21T11:02:56;94061.19;;;14.12;59.86
6680;BME280;3376;42.664;23.346;2023-11-21T11:05:25;94084.75;;;13.79;64.55
6680;BME280;3376;42.664;23.346;2023-11-21T11:07:57;94077.66;;;13.36;66.18
6680;BME280;3376;42.664;23.346;2023-11-21T11:10:27;94072.84;;;13.33;65.94
6680;BME280;3376;42.664;23.346;2023-11-21T11:12:55;94069.06;;;13.22;66.48
6680;BME280;3376;42.664;23.346;2023-11-21T11:15:24;94068.09;;;13.10;65.96
6680;BME280;3376;42.664;23.346;2023-11-21T11:17:52;94064.88;;;13.08;65.96
6680;BME280;3376;42.664;23.346;2023-11-21T11:20:23;94056.50;;;13.13;66.22
6680;BME280;3376;42.664;23.346;2023-11-21T11:22:59;94055.06;;;12.90;66.63
6680;BME280;3376;42.664;23.346;2023-11-21T11:25:41;94043.06;;;12.89;66.76
6680;BME280;3376;42.664;23.346;2023-11-21T11:28:17;94027.88;;;12.86;67.03
6680;BME280;3376;42.664;23.346;2023-11-21T11:30:57;94016.47;;;12.81;67.52
6680;BME280;3376;42.664;23.346;2023-11-21T11:33:38;94031.06;;;12.75;67.35
6680;BME280;3376;42.664;23.346;2023-11-21T11:36:11;93996.28;;;12.50;66.60
6680;BME280;3376;42.664;23.346;2023-11-21T11:38:45;94028.09;;;12.85;67.32
6680;BME280;3376;42.664;23.346;2023-11-21T11:41:24;94024.06;;;12.76;67.02
6680;BME280;3376;42.664;23.346;2023-11-21T11:43:52;94016.50;;;12.68;68.14
6680;BME280;3376;42.664;23.346;2023-11-21T11:46:20;94025.69;;;12.57;70.85
6680;BME280;3376;42.664;23.346;2023-11-21T11:48:48;94032.06;;;12.42;70.36
6680;BME280;3376;42.664;23.346;2023-11-21T11:51:29;94038.22;;;12.21;72.90
6680;BME280;3376;42.664;23.346;2023-11-21T11:53:56;94041.56;;;12.02;74.10
6680;BME280;3376;42.664;23.346;2023-11-21T11:56:27;94034.59;;;11.96;74.09
6680;BME280;3376;42.664;23.346;2023-11-21T11:58:56;94028.81;;;12.07;74.70
6680;BME280;3376;42.664;23.346;2023-11-21T12:01:26;94023.81;;;12.06;75.27
6680;BME280;3376;42.664;23.346;2023-11-21T12:04:24;94026.59;;;11.91;75.90
6680;BME280;3376;42.664;23.346;2023-11-21T12:06:59;94028.31;;;11.77;78.22
6680;BME280;3376;42.664;23.346;2023-11-21T12:09:29;94030.31;;;11.75;78.54
6680;BME280;3376;42.664;23.346;2023-11-21T12:11:57;94027.22;;;11.59;81.92
6680;BME280;3376;42.664;23.346;2023-11-21T12:14:24;94016.97;;;11.38;83.65
6680;BME280;3376;42.664;23.346;2023-11-21T12:16:53;94032.97;;;11.48;81.79
6680;BME280;3376;42.664;23.346;2023-11-21T12:19:20;94047.38;;;11.23;85.70
6680;BME280;3376;42.664;23.346;2023-11-21T12:21:48;94038.72;;;11.09;88.33
6680;BME280;3376;42.664;23.346;2023-11-21T12:24:16;94027.66;;;10.94;89.91
6680;BME280;3376;42.664;23.346;2023-11-21T12:26:43;94031.06;;;10.95;93.84
6680;BME280;3376;42.664;23.346;2023-11-21T12:29:10;94023.06;;;10.90;95.22
6680;BME280;3376;42.664;23.346;2023-11-21T12:31:37;94029.94;;;11.04;92.99
6680;BME280;3376;42.664;23.346;2023-11-21T12:34:06;94039.16;;;11.13;91.75
6680;BME280;3376;42.664;23.346;2023-11-21T12:36:37;94036.19;;;11.16;89.88
6680;BME280;3376;42.664;23.346;2023-11-21T12:39:04;94013.16;;;11.00;90.20
6680;BME280;3376;42.664;23.346;2023-11-21T12:41:34;94041.06;;;10.98;92.85
6680;BME280;3376;42.664;23.346;2023-11-21T12:44:01;94026.44;;;10.90;93.82
6680;BME280;3376;42.664;23.346;2023-11-21T12:46:28;94033.28;;;10.98;93.65
6680;BME280;3376;42.664;23.346;2023-11-21T12:48:57;94019.94;;;11.01;93.75
6680;BME280;3376;42.664;23.346;2023-11-21T12:51:26;94018.78;;;11.10;91.79
6680;BME280;3376;42.664;23.346;2023-11-21T12:53:53;94005.38;;;11.00;92.38
6680;BME280;3376;42.664;23.346;2023-11-21T12:56:22;94002.38;;;10.96;92.73
6680;BME280;3376;42.664;23.346;2023-11-21T12:58:54;94004.72;;;10.91;92.61
6680;BME280;3376;42.664;23.346;2023-11-21T13:01:25;94006.13;;;10.94;92.76
6680;BME280;3376;42.664;23.346;2023-11-21T13:03:56;93981.00;;;10.88;92.25
6680;BME280;3376;42.664;23.346;2023-11-21T13:06:26;93988.22;;;10.99;92.07
6680;BME280;3376;42.664;23.346;2023-11-21T13:08:55;93991.22;;;11.02;92.24
6680;BME280;3376;42.664;23.346;2023-11-21T13:11:22;93991.47;;;11.07;91.80
6680;BME280;3376;42.664;23.346;2023-11-21T13:13:51;93983.31;;;11.10;92.21